createdAt,value
2022-08-31T00:00:41.894Z,9.661472
2022-08-31T00:01:41.997Z,9.661543
2022-08-31T00:02:41.851Z,9.661588
2022-08-31T00:03:41.885Z,9.661500
2022-08-31T00:04:42.905Z,9.661385
2022-08-31T00:05:41.854Z,9.661416
2022-08-31T00:06:41.856Z,9.661506
2022-08-31T00:07:41.835Z,9.661511
2022-08-31T00:08:41.850Z,9.661497
2022-08-31T00:09:41.838Z,9.661488
2022-08-31T00:10:43.255Z,9.661484
2022-08-31T00:11:41.797Z,9.661503
2022-08-31T00:12:41.825Z,9.661549
2022-08-31T00:13:41.788Z,9.661572
2022-08-31T00:14:41.885Z,9.661519
2022-08-31T00:15:41.790Z,9.661494
2022-08-31T00:16:41.841Z,9.661498
2022-08-31T00:17:41.780Z,9.661454
2022-08-31T00:18:41.773Z,9.661461
2022-08-31T00:19:41.795Z,9.661482
2022-08-31T00:20:41.757Z,9.661439
2022-08-31T00:21:41.764Z,9.661386
2022-08-31T00:22:41.737Z,9.661430
2022-08-31T00:23:41.738Z,9.661498
2022-08-31T00:24:41.732Z,9.661511
2022-08-31T00:25:41.844Z,9.661484
2022-08-31T00:26:41.725Z,9.661479
2022-08-31T00:27:41.708Z,9.661510
2022-08-31T00:28:41.697Z,9.661523
2022-08-31T00:29:41.708Z,9.661506
2022-08-31T00:30:41.717Z,9.661495
2022-08-31T00:31:41.777Z,9.661508
2022-08-31T00:32:41.688Z,9.661511
2022-08-31T00:33:41.661Z,9.661550
2022-08-31T00:34:41.658Z,9.661473
2022-08-31T00:35:41.658Z,9.661495
2022-08-31T00:36:41.683Z,9.661458
2022-08-31T00:37:41.665Z,9.661433
2022-08-31T00:38:41.638Z,9.661441
2022-08-31T00:39:41.638Z,9.661488
2022-08-31T00:40:44.902Z,9.661527
2022-08-31T00:41:41.745Z,9.661598
2022-08-31T00:42:42.610Z,9.661595
2022-08-31T00:43:41.623Z,9.661497
2022-08-31T00:44:41.617Z,9.661463
2022-08-31T00:45:41.686Z,9.661485
2022-08-31T00:46:41.595Z,9.661531
2022-08-31T00:47:41.619Z,9.661469
2022-08-31T00:48:41.584Z,9.661286
2022-08-31T00:49:41.588Z,9.661426
2022-08-31T00:50:41.589Z,9.661427
2022-08-31T00:51:41.558Z,9.661446
2022-08-31T00:52:41.591Z,9.661432
2022-08-31T00:53:41.567Z,9.661408
2022-08-31T00:54:41.551Z,9.661478
2022-08-31T00:55:41.552Z,9.661485
2022-08-31T00:56:41.552Z,9.661557
2022-08-31T00:57:41.537Z,9.661595
2022-08-31T00:58:41.546Z,9.661522
2022-08-31T00:59:41.514Z,9.661599
2022-08-31T01:00:41.536Z,9.661584
2022-08-31T01:01:41.573Z,9.661580
2022-08-31T01:02:41.497Z,9.661673
2022-08-31T01:03:41.670Z,9.661671
2022-08-31T01:04:41.515Z,9.661708
2022-08-31T01:05:41.485Z,9.661613
2022-08-31T01:06:41.462Z,9.661561
2022-08-31T01:07:41.475Z,9.661456
2022-08-31T01:08:41.471Z,9.661517
2022-08-31T01:09:45.186Z,9.661473
2022-08-31T01:10:41.459Z,9.661539
2022-08-31T01:11:41.449Z,9.661544
2022-08-31T01:12:41.450Z,9.661711
2022-08-31T01:13:41.428Z,9.661761
2022-08-31T01:14:41.527Z,9.661671
2022-08-31T01:15:41.425Z,9.661662
2022-08-31T01:16:41.453Z,9.661771
2022-08-31T01:17:41.422Z,9.661834
2022-08-31T01:18:41.406Z,9.661626
2022-08-31T01:19:41.397Z,9.661433
2022-08-31T01:20:41.429Z,9.661432
2022-08-31T01:21:42.385Z,9.661366
2022-08-31T01:22:41.386Z,9.661629
2022-08-31T01:23:41.373Z,9.661472
2022-08-31T01:24:41.379Z,9.661423
2022-08-31T01:25:41.397Z,9.661311
2022-08-31T01:26:41.361Z,9.661371
2022-08-31T01:27:41.358Z,9.661453
2022-08-31T01:28:41.346Z,9.661476
2022-08-31T01:29:41.338Z,9.661819
2022-08-31T01:30:41.321Z,9.661509
2022-08-31T01:31:41.394Z,9.661742
2022-08-31T01:32:41.323Z,9.661782
2022-08-31T01:33:41.336Z,9.661656
2022-08-31T01:34:41.309Z,9.661576
2022-08-31T01:35:41.308Z,9.661698
2022-08-31T01:36:41.326Z,9.661390
2022-08-31T01:37:41.308Z,9.661512
2022-08-31T01:38:41.287Z,9.661823
2022-08-31T01:39:41.283Z,9.661879
2022-08-31T01:40:41.298Z,9.661906
2022-08-31T01:41:41.264Z,9.661669
2022-08-31T01:42:44.652Z,9.661366
2022-08-31T01:43:41.262Z,9.661272
2022-08-31T01:44:41.255Z,9.661311
2022-08-31T01:45:41.264Z,9.661550
2022-08-31T01:46:41.350Z,9.661646
2022-08-31T01:47:41.230Z,9.661705
2022-08-31T01:48:41.764Z,9.661695
2022-08-31T01:49:41.225Z,9.661572
2022-08-31T01:50:41.226Z,9.661611
2022-08-31T01:51:41.213Z,9.661553
2022-08-31T01:52:41.220Z,9.661500
2022-08-31T01:53:42.099Z,9.661636
2022-08-31T01:54:41.210Z,9.661629
2022-08-31T01:55:41.188Z,9.661651
2022-08-31T01:56:41.194Z,9.661595
2022-08-31T01:57:41.190Z,9.661608
2022-08-31T01:58:41.168Z,9.661609
2022-08-31T01:59:41.200Z,9.661535
2022-08-31T02:00:41.248Z,9.661552
2022-08-31T02:01:41.244Z,9.661574
2022-08-31T02:02:41.982Z,9.661562
2022-08-31T02:03:41.142Z,9.661549
2022-08-31T02:04:41.172Z,9.661442
2022-08-31T02:05:41.131Z,9.661542
2022-08-31T02:06:41.132Z,9.661580
2022-08-31T02:07:41.118Z,9.661526
2022-08-31T02:08:41.112Z,9.661636
2022-08-31T02:09:41.107Z,9.661596
2022-08-31T02:10:41.129Z,9.661603
2022-08-31T02:11:41.101Z,9.661555
2022-08-31T02:12:41.087Z,9.661613
2022-08-31T02:13:41.086Z,9.661686
2022-08-31T02:14:41.074Z,9.661630
2022-08-31T02:15:41.098Z,9.661543
2022-08-31T02:16:41.132Z,9.661538
2022-08-31T02:17:41.069Z,9.661580
2022-08-31T02:18:42.060Z,9.661614
2022-08-31T02:19:41.058Z,9.661572
2022-08-31T02:20:41.050Z,9.661525
2022-08-31T02:21:42.053Z,9.661564
2022-08-31T02:22:41.033Z,9.661626
2022-08-31T02:23:41.026Z,9.661584
2022-08-31T02:24:41.023Z,9.661707
2022-08-31T02:25:41.009Z,9.661689
2022-08-31T02:26:41.017Z,9.661630
2022-08-31T02:27:41.020Z,9.661654
2022-08-31T02:28:41.048Z,9.661628
2022-08-31T02:29:41.009Z,9.661653
2022-08-31T02:30:40.971Z,9.661640
2022-08-31T02:31:42.050Z,9.661637
2022-08-31T02:32:40.973Z,9.661676
2022-08-31T02:33:40.973Z,9.661625
2022-08-31T02:34:40.968Z,9.661552
2022-08-31T02:35:40.961Z,9.661560
2022-08-31T02:36:40.953Z,9.661681
2022-08-31T02:37:40.957Z,9.661752
2022-08-31T02:38:40.946Z,9.661715
2022-08-31T02:39:40.926Z,9.661565
2022-08-31T02:40:41.034Z,9.661581
2022-08-31T02:41:40.928Z,9.661588
2022-08-31T02:42:52.956Z,9.661564
2022-08-31T02:43:41.910Z,9.661585
2022-08-31T02:44:40.908Z,9.661666
2022-08-31T02:45:40.882Z,9.661793
2022-08-31T02:46:40.943Z,9.661664
2022-08-31T02:47:40.886Z,9.661563
2022-08-31T02:48:40.907Z,9.661457
2022-08-31T02:49:40.876Z,9.661587
2022-08-31T02:50:40.863Z,9.661625
2022-08-31T02:51:40.864Z,9.661715
2022-08-31T02:52:40.868Z,9.661796
2022-08-31T02:53:40.948Z,9.661720
2022-08-31T02:54:40.859Z,9.661699
2022-08-31T02:55:40.831Z,9.661702
2022-08-31T02:56:40.856Z,9.661776
2022-08-31T02:57:40.812Z,9.661648
2022-08-31T02:58:40.822Z,9.661556
2022-08-31T02:59:40.845Z,9.661665
2022-08-31T03:00:40.807Z,9.661761
2022-08-31T03:01:40.869Z,9.661772
2022-08-31T03:02:40.807Z,9.661830
2022-08-31T03:03:40.795Z,9.661680
2022-08-31T03:04:41.812Z,9.661762
2022-08-31T03:05:40.766Z,9.661503
2022-08-31T03:06:40.773Z,9.661684
2022-08-31T03:07:40.779Z,9.661784
2022-08-31T03:08:40.766Z,9.661697
2022-08-31T03:09:40.755Z,9.661675
2022-08-31T03:10:40.855Z,9.661866
2022-08-31T03:11:40.749Z,9.661752
2022-08-31T03:12:40.722Z,9.661835
2022-08-31T03:13:40.724Z,9.661757
2022-08-31T03:14:40.720Z,9.661755
2022-08-31T03:15:40.867Z,9.661969
2022-08-31T03:16:40.697Z,9.661923
2022-08-31T03:17:40.715Z,9.661957
2022-08-31T03:18:40.694Z,9.661605
2022-08-31T03:19:40.709Z,9.661636
2022-08-31T03:20:40.687Z,9.661621
2022-08-31T03:21:40.707Z,9.661594
2022-08-31T03:22:40.680Z,9.661388
2022-08-31T03:23:40.674Z,9.661415
2022-08-31T03:24:40.672Z,9.661481
2022-08-31T03:25:40.646Z,9.661601
2022-08-31T03:26:41.778Z,9.661500
2022-08-31T03:27:40.653Z,9.661593
2022-08-31T03:28:40.627Z,9.661639
2022-08-31T03:29:40.642Z,9.661482
2022-08-31T03:30:40.696Z,9.661630
2022-08-31T03:31:40.663Z,9.661552
2022-08-31T03:32:40.710Z,9.661817
2022-08-31T03:33:40.597Z,9.661655
2022-08-31T03:34:40.608Z,9.661663
2022-08-31T03:35:40.611Z,9.661648
2022-08-31T03:36:40.604Z,9.661547
2022-08-31T03:37:40.604Z,9.661562
2022-08-31T03:38:40.582Z,9.661580
2022-08-31T03:39:40.567Z,9.661579
2022-08-31T03:40:40.658Z,9.661509
2022-08-31T03:41:40.553Z,9.661458
2022-08-31T03:42:40.551Z,9.661580
2022-08-31T03:43:40.568Z,9.661577
2022-08-31T03:44:40.558Z,9.661618
2022-08-31T03:45:40.550Z,9.661550
2022-08-31T03:46:40.601Z,9.661457
2022-08-31T03:47:44.575Z,9.661559
2022-08-31T03:48:40.573Z,9.661555
2022-08-31T03:49:40.519Z,9.661555
2022-08-31T03:50:40.512Z,9.661493
2022-08-31T03:51:40.507Z,9.661541
2022-08-31T03:52:40.498Z,9.661590
2022-08-31T03:53:40.506Z,9.661539
2022-08-31T03:54:40.618Z,9.661567
2022-08-31T03:55:40.485Z,9.661509
2022-08-31T03:56:40.489Z,9.661576
2022-08-31T03:57:40.492Z,9.661561
2022-08-31T03:58:40.471Z,9.661530
2022-08-31T03:59:40.579Z,9.661532
2022-08-31T04:00:40.454Z,9.661461
2022-08-31T04:01:40.454Z,9.661482
2022-08-31T04:02:40.487Z,9.661522
2022-08-31T04:03:40.447Z,9.661561
2022-08-31T04:04:40.418Z,9.661620
2022-08-31T04:05:40.528Z,9.661717
2022-08-31T04:06:40.424Z,9.661654
2022-08-31T04:07:42.884Z,9.661672
2022-08-31T04:08:40.420Z,9.661723
2022-08-31T04:09:40.399Z,9.661692
2022-08-31T04:10:40.467Z,9.661694
2022-08-31T04:11:45.062Z,9.661525
2022-08-31T04:12:41.396Z,9.661634
2022-08-31T04:13:40.389Z,9.661567
2022-08-31T04:14:40.372Z,9.661622
2022-08-31T04:15:40.395Z,9.661595
2022-08-31T04:16:40.401Z,9.661551
2022-08-31T04:17:40.334Z,9.661552
2022-08-31T04:18:40.345Z,9.661517
2022-08-31T04:19:40.335Z,9.661547
2022-08-31T04:20:40.345Z,9.661567
2022-08-31T04:21:40.344Z,9.661586
2022-08-31T04:22:40.321Z,9.661572
2022-08-31T04:23:40.319Z,9.661559
2022-08-31T04:24:40.305Z,9.661552
2022-08-31T04:25:40.299Z,9.661575
2022-08-31T04:26:40.297Z,9.661536
2022-08-31T04:27:40.313Z,9.661596
2022-08-31T04:28:40.281Z,9.661574
2022-08-31T04:29:40.284Z,9.661581
2022-08-31T04:30:40.330Z,9.661663
2022-08-31T04:31:40.275Z,9.661562
2022-08-31T04:32:40.367Z,9.661532
2022-08-31T04:33:40.243Z,9.661569
2022-08-31T04:34:40.250Z,9.661534
2022-08-31T04:35:40.227Z,9.661506
2022-08-31T04:36:40.243Z,9.661562
2022-08-31T04:37:43.400Z,9.661494
2022-08-31T04:38:40.243Z,9.661511
2022-08-31T04:39:50.706Z,9.661460
2022-08-31T04:40:40.266Z,9.661584
2022-08-31T04:41:40.215Z,9.661722
2022-08-31T04:42:40.195Z,9.661644
2022-08-31T04:43:40.228Z,9.661646
2022-08-31T04:44:40.186Z,9.661598
2022-08-31T04:45:40.237Z,9.661524
2022-08-31T04:46:40.180Z,9.661685
2022-08-31T04:47:40.182Z,9.661793
2022-08-31T04:48:40.175Z,9.661924
2022-08-31T04:49:40.178Z,9.661839
2022-08-31T04:50:42.660Z,9.661714
2022-08-31T04:51:40.158Z,9.661726
2022-08-31T04:52:40.143Z,9.661751
2022-08-31T04:53:40.128Z,9.661633
2022-08-31T04:54:40.144Z,9.661621
2022-08-31T04:55:40.120Z,9.661565
2022-08-31T04:56:40.129Z,9.661548
2022-08-31T04:57:40.108Z,9.661501
2022-08-31T04:58:40.101Z,9.661470
2022-08-31T04:59:40.107Z,9.661485
2022-08-31T05:00:40.214Z,9.661525
2022-08-31T05:01:42.688Z,9.661596
2022-08-31T05:02:40.159Z,9.661494
2022-08-31T05:03:40.077Z,9.661529
2022-08-31T05:04:40.090Z,9.661570
2022-08-31T05:05:40.074Z,9.661487
2022-08-31T05:06:40.063Z,9.661465
2022-08-31T05:07:40.058Z,9.661539
2022-08-31T05:08:40.057Z,9.661519
2022-08-31T05:09:40.034Z,9.661579
2022-08-31T05:10:40.054Z,9.661554
2022-08-31T05:11:40.061Z,9.661515
2022-08-31T05:12:40.019Z,9.661498
2022-08-31T05:13:40.018Z,9.661477
2022-08-31T05:14:39.997Z,9.661522
2022-08-31T05:15:40.056Z,9.661491
2022-08-31T05:16:40.027Z,9.661495
2022-08-31T05:17:39.990Z,9.661481
2022-08-31T05:18:39.973Z,9.661430
2022-08-31T05:19:41.306Z,9.661508
2022-08-31T05:20:41.083Z,9.661449
2022-08-31T05:21:39.980Z,9.661547
2022-08-31T05:22:39.973Z,9.661523
2022-08-31T05:23:39.962Z,9.661463
2022-08-31T05:24:39.954Z,9.661541
2022-08-31T05:25:39.944Z,9.661443
2022-08-31T05:26:42.028Z,9.661531
2022-08-31T05:27:39.937Z,9.661491
2022-08-31T05:28:39.938Z,9.661483
2022-08-31T05:29:39.922Z,9.661505
2022-08-31T05:30:40.008Z,9.661550
2022-08-31T05:31:39.988Z,9.661574
2022-08-31T05:32:39.901Z,9.661648
2022-08-31T05:33:39.912Z,9.661572
2022-08-31T05:34:39.890Z,9.661506
2022-08-31T05:35:39.892Z,9.661484
2022-08-31T05:36:39.881Z,9.661510
2022-08-31T05:37:39.889Z,9.661584
2022-08-31T05:38:39.876Z,9.661687
2022-08-31T05:39:39.873Z,9.661496
2022-08-31T05:40:39.966Z,9.661510
2022-08-31T05:41:39.845Z,9.661598
2022-08-31T05:42:39.870Z,9.661564
2022-08-31T05:43:39.837Z,9.661609
2022-08-31T05:44:39.833Z,9.661604
2022-08-31T05:45:39.833Z,9.661543
2022-08-31T05:46:39.868Z,9.661550
2022-08-31T05:47:39.825Z,9.661560
2022-08-31T05:48:39.857Z,9.661503
2022-08-31T05:49:39.809Z,9.661574
2022-08-31T05:50:39.796Z,9.661558
2022-08-31T05:51:39.822Z,9.661499
2022-08-31T05:52:39.802Z,9.661520
2022-08-31T05:53:39.821Z,9.661670
2022-08-31T05:54:39.791Z,9.661725
2022-08-31T05:55:39.777Z,9.661632
2022-08-31T05:56:39.776Z,9.661514
2022-08-31T05:57:39.771Z,9.661527
2022-08-31T05:58:39.764Z,9.661291
2022-08-31T05:59:39.867Z,9.661313
2022-08-31T06:00:39.748Z,9.661480
2022-08-31T06:01:39.824Z,9.661386
2022-08-31T06:02:39.756Z,9.661396
2022-08-31T06:03:39.751Z,9.661453
2022-08-31T06:04:39.767Z,9.661342
2022-08-31T06:05:39.804Z,9.661331
2022-08-31T06:06:39.728Z,9.661412
2022-08-31T06:07:39.727Z,9.661470
2022-08-31T06:08:39.712Z,9.661589
2022-08-31T06:09:39.689Z,9.661598
2022-08-31T06:10:39.815Z,9.661464
2022-08-31T06:11:39.705Z,9.661444
2022-08-31T06:12:39.702Z,9.661288
2022-08-31T06:13:39.674Z,9.661287
2022-08-31T06:14:40.887Z,9.661386
2022-08-31T06:15:42.257Z,9.661432
2022-08-31T06:16:39.746Z,9.661416
2022-08-31T06:17:39.643Z,9.661458
2022-08-31T06:18:39.639Z,9.661433
2022-08-31T06:19:39.630Z,9.661472
2022-08-31T06:20:39.658Z,9.661392
2022-08-31T06:21:39.656Z,9.661403
2022-08-31T06:22:40.630Z,9.661400
2022-08-31T06:23:39.626Z,9.661409
2022-08-31T06:24:39.620Z,9.661420
2022-08-31T06:25:39.641Z,9.661446
2022-08-31T06:26:39.646Z,9.661427
2022-08-31T06:27:39.599Z,9.661423
2022-08-31T06:28:39.595Z,9.661373
2022-08-31T06:29:39.585Z,9.661353
2022-08-31T06:30:54.361Z,9.661428
2022-08-31T06:31:40.635Z,9.661490
2022-08-31T06:32:39.585Z,9.661446
2022-08-31T06:33:39.581Z,9.661426
2022-08-31T06:34:39.595Z,9.661414
2022-08-31T06:35:39.566Z,9.661343
2022-08-31T06:36:39.537Z,9.661419
2022-08-31T06:37:39.600Z,9.661424
2022-08-31T06:38:39.554Z,9.661405
2022-08-31T06:39:39.535Z,9.661413
2022-08-31T06:40:39.674Z,9.661477
2022-08-31T06:41:39.533Z,9.661474
2022-08-31T06:42:39.557Z,9.661569
2022-08-31T06:43:39.522Z,9.661492
2022-08-31T06:44:39.490Z,9.661447
2022-08-31T06:45:39.495Z,9.661161
2022-08-31T06:46:39.552Z,9.661048
2022-08-31T06:47:39.495Z,9.661437
2022-08-31T06:48:39.632Z,9.661635
2022-08-31T06:49:39.485Z,9.661513
2022-08-31T06:50:39.477Z,9.661815
2022-08-31T06:51:39.465Z,9.661564
2022-08-31T06:52:39.439Z,9.661525
2022-08-31T06:53:39.478Z,9.661533
2022-08-31T06:54:39.436Z,9.661472
2022-08-31T06:55:39.456Z,9.661572
2022-08-31T06:56:39.440Z,9.661545
2022-08-31T06:57:39.440Z,9.661528
2022-08-31T06:58:39.422Z,9.661582
2022-08-31T06:59:39.539Z,9.661485
2022-08-31T07:00:39.404Z,9.661534
2022-08-31T07:01:39.534Z,9.661459
2022-08-31T07:02:39.461Z,9.661371
2022-08-31T07:03:39.406Z,9.661311
2022-08-31T07:04:39.497Z,9.661180
2022-08-31T07:05:39.392Z,9.661323
2022-08-31T07:06:39.376Z,9.661427
2022-08-31T07:07:39.390Z,9.661122
2022-08-31T07:08:39.348Z,9.661257
2022-08-31T07:09:39.352Z,9.661222
2022-08-31T07:10:39.476Z,9.661387
2022-08-31T07:11:43.683Z,9.661464
2022-08-31T07:12:40.373Z,9.661411
2022-08-31T07:13:39.340Z,9.661299
2022-08-31T07:14:39.364Z,9.661367
2022-08-31T07:15:39.376Z,9.661359
2022-08-31T07:16:39.342Z,9.661332
2022-08-31T07:17:39.323Z,9.661458
2022-08-31T07:18:39.312Z,9.661330
2022-08-31T07:19:44.795Z,9.661391
2022-08-31T07:20:39.302Z,9.661276
2022-08-31T07:21:39.328Z,9.661275
2022-08-31T07:22:39.299Z,9.661288
2022-08-31T07:23:39.283Z,9.661299
2022-08-31T07:24:39.263Z,9.661283
2022-08-31T07:25:39.272Z,9.661358
2022-08-31T07:26:39.934Z,9.661398
2022-08-31T07:27:39.262Z,9.661386
2022-08-31T07:28:39.263Z,9.661376
2022-08-31T07:29:39.240Z,9.661396
2022-08-31T07:30:39.268Z,9.661377
2022-08-31T07:31:39.230Z,9.661346
2022-08-31T07:32:39.465Z,9.661367
2022-08-31T07:33:39.212Z,9.661385
2022-08-31T07:34:39.226Z,9.661443
2022-08-31T07:35:39.211Z,9.661457
2022-08-31T07:36:39.286Z,9.661468
2022-08-31T07:37:39.291Z,9.661533
2022-08-31T07:38:39.193Z,9.661623
2022-08-31T07:39:39.171Z,9.661606
2022-08-31T07:40:39.240Z,9.661564
2022-08-31T07:41:39.177Z,9.661512
2022-08-31T07:42:39.181Z,9.661521
2022-08-31T07:43:39.194Z,9.661524
2022-08-31T07:44:39.174Z,9.661443
2022-08-31T07:45:39.583Z,9.661506
2022-08-31T07:46:39.133Z,9.661499
2022-08-31T07:47:39.130Z,9.661601
2022-08-31T07:48:39.236Z,9.661570
2022-08-31T07:49:39.118Z,9.661621
2022-08-31T07:50:39.132Z,9.661444
2022-08-31T07:51:39.113Z,9.661300
2022-08-31T07:52:39.184Z,9.661826
2022-08-31T07:53:39.109Z,9.661958
2022-08-31T07:54:39.149Z,9.662014
2022-08-31T07:55:39.098Z,9.662235
2022-08-31T07:56:39.078Z,9.662070
2022-08-31T07:57:39.089Z,9.661902
2022-08-31T07:58:39.111Z,9.661745
2022-08-31T07:59:39.187Z,9.661803
2022-08-31T08:00:39.056Z,9.662033
2022-08-31T08:01:39.128Z,9.661934
2022-08-31T08:02:39.152Z,9.661809
2022-08-31T08:03:39.062Z,9.661874
2022-08-31T08:04:39.061Z,9.661860
2022-08-31T08:05:39.141Z,9.661868
2022-08-31T08:06:39.025Z,9.661860
2022-08-31T08:07:39.040Z,9.661914
2022-08-31T08:08:39.005Z,9.661815
2022-08-31T08:09:39.008Z,9.661818
2022-08-31T08:10:39.025Z,9.661889
2022-08-31T08:11:38.990Z,9.661754
2022-08-31T08:12:39.003Z,9.661765
2022-08-31T08:13:38.974Z,9.661617
2022-08-31T08:14:38.991Z,9.661545
2022-08-31T08:15:40.383Z,9.661571
2022-08-31T08:16:39.154Z,9.661516
2022-08-31T08:17:38.961Z,9.661547
2022-08-31T08:18:38.956Z,9.661466
2022-08-31T08:19:38.954Z,9.661511
2022-08-31T08:20:39.290Z,9.661466
2022-08-31T08:21:39.034Z,9.661558
2022-08-31T08:22:51.712Z,9.661600
2022-08-31T08:23:48.839Z,9.661640
2022-08-31T08:24:38.909Z,9.661614
2022-08-31T08:25:38.909Z,9.661454
2022-08-31T08:26:38.911Z,9.661550
2022-08-31T08:27:38.930Z,9.661428
2022-08-31T08:28:40.601Z,9.661524
2022-08-31T08:29:39.897Z,9.661573
2022-08-31T08:30:38.886Z,9.661597
2022-08-31T08:31:38.972Z,9.661514
2022-08-31T08:32:38.878Z,9.661467
2022-08-31T08:33:38.854Z,9.661480
2022-08-31T08:34:38.862Z,9.661469
2022-08-31T08:35:38.906Z,9.661472
2022-08-31T08:36:38.899Z,9.661438
2022-08-31T08:37:57.398Z,9.661435
2022-08-31T08:38:40.939Z,9.661504
2022-08-31T08:39:38.834Z,9.661417
2022-08-31T08:40:38.992Z,9.661363
2022-08-31T08:41:38.828Z,9.661381
2022-08-31T08:42:38.800Z,9.661516
2022-08-31T08:43:38.873Z,9.661529
2022-08-31T08:44:38.909Z,9.661515
2022-08-31T08:45:38.817Z,9.661556
2022-08-31T08:46:38.844Z,9.661354
2022-08-31T08:47:39.116Z,9.661327
2022-08-31T08:48:38.769Z,9.661314
2022-08-31T08:49:38.855Z,9.661455
2022-08-31T08:50:38.762Z,9.661522
2022-08-31T08:51:38.754Z,9.661631
2022-08-31T08:52:38.742Z,9.661612
2022-08-31T08:53:38.740Z,9.661490
2022-08-31T08:54:38.793Z,9.661510
2022-08-31T08:55:38.844Z,9.661536
2022-08-31T08:56:38.711Z,9.661495
2022-08-31T08:57:38.723Z,9.661519
2022-08-31T08:58:38.708Z,9.661641
2022-08-31T08:59:38.716Z,9.661539
2022-08-31T09:00:38.734Z,9.661547
2022-08-31T09:01:38.792Z,9.661506
2022-08-31T09:02:38.815Z,9.661588
2022-08-31T09:03:38.688Z,9.661729
2022-08-31T09:04:38.673Z,9.661743
2022-08-31T09:05:38.658Z,9.661641
2022-08-31T09:06:45.407Z,9.661614
2022-08-31T09:07:39.674Z,9.661699
2022-08-31T09:08:38.659Z,9.661704
2022-08-31T09:09:38.650Z,9.661718
2022-08-31T09:10:38.645Z,9.661606
2022-08-31T09:11:38.642Z,9.661522
2022-08-31T09:12:38.686Z,9.661469
2022-08-31T09:13:38.632Z,9.661272
2022-08-31T09:14:38.615Z,9.661238
2022-08-31T09:15:39.648Z,9.661254
2022-08-31T09:16:38.611Z,9.661288
2022-08-31T09:17:38.628Z,9.661257
2022-08-31T09:18:38.617Z,9.661372
2022-08-31T09:19:38.595Z,9.661773
2022-08-31T09:20:38.595Z,9.661901
2022-08-31T09:21:38.580Z,9.661569
2022-08-31T09:22:39.711Z,9.661509
2022-08-31T09:23:38.558Z,9.661580
2022-08-31T09:24:38.570Z,9.661653
2022-08-31T09:25:38.591Z,9.661762
2022-08-31T09:26:38.563Z,9.661623
2022-08-31T09:27:38.550Z,9.661565
2022-08-31T09:28:38.678Z,9.661524
2022-08-31T09:29:38.543Z,9.661520
2022-08-31T09:30:38.545Z,9.661566
2022-08-31T09:31:39.114Z,9.661576
2022-08-31T09:32:38.519Z,9.661598
2022-08-31T09:33:38.597Z,9.661591
2022-08-31T09:34:38.516Z,9.661546
2022-08-31T09:35:38.509Z,9.661448
2022-08-31T09:36:38.506Z,9.661554
2022-08-31T09:37:38.482Z,9.661614
2022-08-31T09:38:38.486Z,9.661468
2022-08-31T09:39:38.589Z,9.661419
2022-08-31T09:40:38.516Z,9.661485
2022-08-31T09:41:38.472Z,9.661597
2022-08-31T09:42:38.479Z,9.661512
2022-08-31T09:43:38.469Z,9.661443
2022-08-31T09:44:38.571Z,9.661530
2022-08-31T09:45:42.126Z,9.661582
2022-08-31T09:46:38.452Z,9.661555
2022-08-31T09:47:38.423Z,9.661659
2022-08-31T09:48:38.412Z,9.661617
2022-08-31T09:49:38.431Z,9.661743
2022-08-31T09:50:38.438Z,9.661649
2022-08-31T09:51:38.806Z,9.661684
2022-08-31T09:52:38.396Z,9.661425
2022-08-31T09:53:38.412Z,9.661542
2022-08-31T09:54:41.011Z,9.661499
2022-08-31T09:55:38.488Z,9.661614
2022-08-31T09:56:38.375Z,9.661678
2022-08-31T09:57:38.361Z,9.661728
2022-08-31T09:58:38.401Z,9.661577
2022-08-31T09:59:38.861Z,9.661451
2022-08-31T10:00:38.373Z,9.661502
2022-08-31T10:01:38.683Z,9.661580
2022-08-31T10:02:38.351Z,9.661530
2022-08-31T10:03:38.354Z,9.661531
2022-08-31T10:04:38.394Z,9.661463
2022-08-31T10:05:38.342Z,9.661541
2022-08-31T10:06:38.421Z,9.661581
2022-08-31T10:07:38.400Z,9.661519
2022-08-31T10:08:38.339Z,9.661788
2022-08-31T10:09:38.311Z,9.661648
2022-08-31T10:10:38.311Z,9.661668
2022-08-31T10:11:38.300Z,9.661550
2022-08-31T10:12:38.328Z,9.661626
2022-08-31T10:13:38.291Z,9.661551
2022-08-31T10:14:38.282Z,9.661584
2022-08-31T10:15:38.369Z,9.661592
2022-08-31T10:16:38.279Z,9.661543
2022-08-31T10:17:38.289Z,9.661515
2022-08-31T10:18:38.277Z,9.661673
2022-08-31T10:19:38.248Z,9.661517
2022-08-31T10:20:38.256Z,9.661689
2022-08-31T10:21:38.251Z,9.661551
2022-08-31T10:22:38.236Z,9.661475
2022-08-31T10:23:38.264Z,9.661282
2022-08-31T10:24:38.233Z,9.661274
2022-08-31T10:25:38.237Z,9.661480
2022-08-31T10:26:38.227Z,9.661393
2022-08-31T10:27:38.213Z,9.661367
2022-08-31T10:28:38.219Z,9.661351
2022-08-31T10:29:38.208Z,9.661315
2022-08-31T10:30:38.311Z,9.661616
2022-08-31T10:31:38.260Z,9.661701
2022-08-31T10:32:38.182Z,9.661675
2022-08-31T10:33:38.188Z,9.661613
2022-08-31T10:34:38.281Z,9.661882
2022-08-31T10:35:38.174Z,9.661801
2022-08-31T10:36:38.157Z,9.661785
2022-08-31T10:37:38.164Z,9.661834
2022-08-31T10:38:38.143Z,9.661950
2022-08-31T10:39:38.363Z,9.661724
2022-08-31T10:40:38.204Z,9.661673
2022-08-31T10:41:38.120Z,9.661557
2022-08-31T10:42:38.123Z,9.661566
2022-08-31T10:43:38.120Z,9.661543
2022-08-31T10:44:38.107Z,9.661540
2022-08-31T10:45:38.135Z,9.661480
2022-08-31T10:46:38.157Z,9.661587
2022-08-31T10:47:38.091Z,9.661531
2022-08-31T10:48:38.088Z,9.661583
2022-08-31T10:49:38.086Z,9.661552
2022-08-31T10:50:38.119Z,9.661636
2022-08-31T10:51:38.089Z,9.661794
2022-08-31T10:52:38.059Z,9.661494
2022-08-31T10:53:39.993Z,9.661572
2022-08-31T10:54:38.061Z,9.661531
2022-08-31T10:55:38.041Z,9.661552
2022-08-31T10:56:38.075Z,9.661558
2022-08-31T10:57:38.035Z,9.661572
2022-08-31T10:58:38.037Z,9.661497
2022-08-31T10:59:38.033Z,9.661544
2022-08-31T11:00:38.033Z,9.661538
2022-08-31T11:01:38.171Z,9.661489
2022-08-31T11:02:38.005Z,9.661483
2022-08-31T11:03:38.055Z,9.661445
2022-08-31T11:04:38.085Z,9.661586
2022-08-31T11:05:37.969Z,9.661455
2022-08-31T11:06:37.969Z,9.661612
2022-08-31T11:07:38.074Z,9.661617
2022-08-31T11:08:37.964Z,9.661259
2022-08-31T11:09:37.969Z,9.661392
2022-08-31T11:10:37.966Z,9.661531
2022-08-31T11:11:42.532Z,9.661613
2022-08-31T11:12:39.058Z,9.661512
2022-08-31T11:13:37.942Z,9.661626
2022-08-31T11:14:37.947Z,9.661432
2022-08-31T11:15:37.976Z,9.661775
2022-08-31T11:16:37.914Z,9.661431
2022-08-31T11:17:37.934Z,9.661633
2022-08-31T11:18:38.015Z,9.661798
2022-08-31T11:19:37.908Z,9.661552
2022-08-31T11:20:37.878Z,9.661732
2022-08-31T11:21:38.890Z,9.661776
2022-08-31T11:22:37.923Z,9.661558
2022-08-31T11:23:42.286Z,9.661594
2022-08-31T11:24:37.876Z,9.661649
2022-08-31T11:25:37.879Z,9.661630
2022-08-31T11:26:37.885Z,9.661632
2022-08-31T11:27:37.891Z,9.661557
2022-08-31T11:28:37.842Z,9.661701
2022-08-31T11:29:37.967Z,9.661729
2022-08-31T11:30:41.970Z,9.661577
2022-08-31T11:31:37.927Z,9.661468
2022-08-31T11:32:38.621Z,9.661568
2022-08-31T11:33:37.850Z,9.661618
2022-08-31T11:34:38.840Z,9.661394
2022-08-31T11:35:42.190Z,9.661125
2022-08-31T11:36:38.811Z,9.661509
2022-08-31T11:37:37.827Z,9.661538
2022-08-31T11:38:37.817Z,9.661484
2022-08-31T11:39:37.802Z,9.661527
2022-08-31T11:40:37.866Z,9.661375
2022-08-31T11:41:37.777Z,9.661572
2022-08-31T11:42:37.762Z,9.661495
2022-08-31T11:43:37.770Z,9.661541
2022-08-31T11:44:37.757Z,9.661470